createdAt,value
2018-09-20T00:01:53.401Z,5.17
2018-09-20T00:04:23.747Z,6.73
2018-09-20T00:06:52.722Z,5.53
2018-09-20T00:09:21.567Z,7.53
2018-09-20T00:11:50.411Z,7.67
2018-09-20T00:14:19.658Z,7.03
2018-09-20T00:16:49.266Z,6.03
2018-09-20T00:19:18.198Z,5.23
2018-09-20T00:21:47.051Z,5.77
2018-09-20T00:24:16.163Z,5.40
2018-09-20T00:26:45.335Z,6.67
2018-09-20T00:29:14.647Z,6.77
2018-09-20T00:31:43.475Z,8.83
2018-09-20T00:34:12.300Z,9.53
2018-09-20T00:36:41.532Z,6.47
2018-09-20T00:39:12.291Z,5.80
2018-09-20T00:41:43.512Z,6.67
2018-09-20T00:44:12.538Z,8.13
2018-09-20T00:46:41.394Z,5.73
2018-09-20T00:49:10.246Z,5.70
2018-09-20T00:51:39.101Z,5.43
2018-09-20T00:54:07.986Z,8.33
2018-09-20T00:56:37.879Z,6.80
2018-09-20T00:59:07.792Z,6.03
2018-09-20T01:01:36.999Z,5.43
2018-09-20T01:04:05.834Z,5.13
2018-09-20T01:06:34.690Z,8.43
2018-09-20T01:09:04.802Z,5.83
2018-09-20T01:11:33.634Z,6.17
2018-09-20T01:14:02.536Z,6.77
2018-09-20T01:16:31.404Z,5.00
2018-09-20T01:19:00.375Z,5.57
2018-09-20T01:21:30.054Z,5.27
2018-09-20T01:23:58.973Z,8.57
2018-09-20T01:26:29.158Z,8.13
2018-09-20T01:28:59.393Z,5.07
2018-09-20T01:31:28.245Z,8.03
2018-09-20T01:33:57.087Z,6.87
2018-09-20T01:36:25.976Z,7.37
2018-09-20T01:38:54.768Z,6.33
2018-09-20T01:41:23.666Z,7.73
2018-09-20T01:43:52.527Z,6.97
2018-09-20T01:46:21.406Z,5.93
2018-09-20T01:48:51.139Z,7.83
2018-09-20T01:51:19.978Z,6.73
2018-09-20T01:53:49.042Z,5.97
2018-09-20T01:56:19.855Z,5.93
2018-09-20T01:58:48.703Z,7.30
2018-09-20T02:01:17.552Z,6.17
2018-09-20T02:03:46.410Z,6.30
2018-09-20T02:06:15.738Z,6.03
2018-09-20T02:08:44.834Z,6.30
2018-09-20T02:11:14.227Z,8.27
2018-09-20T02:13:43.058Z,7.53
2018-09-20T02:16:13.232Z,5.97
2018-09-20T02:18:42.066Z,7.43
2018-09-20T02:21:10.923Z,7.43
2018-09-20T02:23:39.798Z,6.37
2018-09-20T02:26:08.681Z,6.50
2018-09-20T02:28:37.584Z,7.53
2018-09-20T02:31:06.500Z,6.00
2018-09-20T02:33:36.155Z,6.10
2018-09-20T02:36:05.017Z,6.60
2018-09-20T02:38:35.096Z,5.57
2018-09-20T02:41:04.292Z,8.27
2018-09-20T02:43:33.126Z,6.03
2018-09-20T02:46:02.259Z,6.47
2018-09-20T02:48:32.251Z,7.07
2018-09-20T02:51:01.102Z,6.30
2018-09-20T02:53:29.951Z,9.27
2018-09-20T02:55:59.974Z,9.37
2018-09-20T02:58:28.902Z,7.20
2018-09-20T03:00:59.003Z,9.60
2018-09-20T03:03:27.842Z,9.27
2018-09-20T03:05:56.791Z,15.37
2018-09-20T03:08:25.686Z,6.37
2018-09-20T03:10:54.830Z,8.13
2018-09-20T03:13:24.376Z,6.10
2018-09-20T03:15:53.175Z,5.77
2018-09-20T03:18:22.059Z,8.53
2018-09-20T03:20:50.923Z,8.37
2018-09-20T03:23:20.659Z,11.83
2018-09-20T03:25:50.083Z,9.20
2018-09-20T03:28:19.648Z,7.33
2018-09-20T03:30:48.735Z,9.40
2018-09-20T03:33:19.080Z,9.27
2018-09-20T03:35:47.924Z,7.70
2018-09-20T03:38:16.979Z,7.10
2018-09-20T03:40:45.887Z,9.30
2018-09-20T03:43:14.734Z,9.07
2018-09-20T03:45:43.891Z,6.67
2018-09-20T03:48:14.282Z,8.50
2018-09-20T03:50:43.127Z,6.50
2018-09-20T03:53:11.967Z,8.10
2018-09-20T03:55:42.164Z,9.17
2018-09-20T03:58:11.002Z,9.27
2018-09-20T04:00:39.865Z,9.10
2018-09-20T04:03:08.834Z,7.40
2018-09-20T04:05:37.775Z,9.23
2018-09-20T04:08:06.860Z,7.00
2018-09-20T04:10:35.724Z,9.60
2018-09-20T04:13:04.735Z,12.23
2018-09-20T04:15:34.204Z,9.93
2018-09-20T04:18:03.134Z,12.20
2018-09-20T04:20:32.896Z,15.33
2018-09-20T04:23:01.753Z,11.63
2018-09-20T04:25:30.610Z,13.60
2018-09-20T04:27:59.506Z,17.37
2018-09-20T04:30:28.360Z,11.83
2018-09-20T04:32:58.188Z,9.03
2018-09-20T04:35:27.059Z,9.10
2018-09-20T04:37:55.959Z,9.03
2018-09-20T04:40:24.896Z,9.93
2018-09-20T04:42:53.761Z,11.77
2018-09-20T04:45:23.078Z,10.07
2018-09-20T04:47:51.968Z,6.77
2018-09-20T04:50:20.868Z,9.10
2018-09-20T04:52:49.718Z,12.07
2018-09-20T04:55:19.255Z,12.57
2018-09-20T04:57:49.662Z,9.43
2018-09-20T05:00:18.895Z,9.03
2018-09-20T05:02:48.090Z,12.63
2018-09-20T05:05:17.175Z,7.83
2018-09-20T05:07:46.507Z,9.20
2018-09-20T05:10:15.411Z,8.30
2018-09-20T05:12:45.556Z,9.30
2018-09-20T05:15:14.484Z,7.97
2018-09-20T05:17:43.649Z,8.90
2018-09-20T05:20:13.926Z,8.60
2018-09-20T05:22:42.984Z,7.20
2018-09-20T05:25:11.988Z,11.67
2018-09-20T05:27:40.879Z,10.17
2018-09-20T05:30:09.778Z,8.70
2018-09-20T05:32:38.710Z,10.47
2018-09-20T05:35:07.605Z,13.43
2018-09-20T05:37:37.587Z,12.40
2018-09-20T05:40:06.434Z,9.97
2018-09-20T05:42:35.342Z,10.10
2018-09-20T05:45:05.442Z,9.23
2018-09-20T05:47:34.286Z,9.93
2018-09-20T05:50:03.179Z,11.03
2018-09-20T05:52:32.018Z,7.93
2018-09-20T05:55:01.319Z,9.70
2018-09-20T05:57:31.334Z,8.23
2018-09-20T06:00:00.193Z,9.63
2018-09-20T06:02:29.055Z,14.33
2018-09-20T06:04:58.243Z,11.37
2018-09-20T06:07:28.907Z,10.87
2018-09-20T06:09:58.875Z,8.37
2018-09-20T06:12:27.752Z,13.27
2018-09-20T06:14:57.018Z,9.90
2018-09-20T06:17:26.159Z,9.00
2018-09-20T06:19:55.525Z,14.40
2018-09-20T06:22:24.425Z,15.00
2018-09-20T06:24:53.741Z,20.83
2018-09-20T06:27:22.569Z,16.87
2018-09-20T06:29:51.431Z,24.03
2018-09-20T06:32:20.358Z,17.63
2018-09-20T06:34:50.108Z,26.07
2018-09-20T06:37:18.936Z,22.87
2018-09-20T06:39:47.798Z,20.60
2018-09-20T06:42:16.655Z,17.67
2018-09-20T06:44:45.515Z,18.77
2018-09-20T06:47:14.453Z,18.87
2018-09-20T06:49:43.307Z,15.00
2018-09-20T06:52:14.542Z,16.67
2018-09-20T06:54:43.431Z,18.03
2018-09-20T06:57:13.639Z,14.03
2018-09-20T06:59:43.349Z,13.43
2018-09-20T07:02:12.283Z,16.67
2018-09-20T07:04:41.153Z,17.93
2018-09-20T07:07:10.047Z,14.57
2018-09-20T07:09:38.993Z,16.33
2018-09-20T07:12:09.544Z,16.80
2018-09-20T07:14:38.415Z,11.60
2018-09-20T07:17:07.277Z,16.37
2018-09-20T07:19:36.164Z,12.07
2018-09-20T07:22:05.095Z,17.77
2018-09-20T07:24:34.623Z,21.40
2018-09-20T07:27:03.508Z,22.93
2018-09-20T07:29:33.108Z,18.70
2018-09-20T07:32:01.960Z,14.47
2018-09-20T07:34:30.860Z,15.93
2018-09-20T07:37:00.006Z,18.30
2018-09-20T07:39:33.276Z,11.87
2018-09-20T07:42:02.180Z,13.83
2018-09-20T07:44:31.099Z,15.10
2018-09-20T07:47:01.073Z,15.37
2018-09-20T07:49:29.967Z,11.13
2018-09-20T07:51:58.914Z,12.73
2018-09-20T07:54:27.804Z,13.70
2018-09-20T07:56:57.872Z,12.17
2018-09-20T07:59:26.756Z,12.47
2018-09-20T08:01:55.734Z,16.27
2018-09-20T08:04:24.584Z,17.17
2018-09-20T08:06:53.492Z,13.10
2018-09-20T08:09:22.421Z,9.03
2018-09-20T08:11:51.270Z,11.57
2018-09-20T08:14:20.582Z,8.20
2018-09-20T08:16:49.509Z,10.03
2018-09-20T08:19:18.763Z,13.40
2018-09-20T08:21:48.154Z,10.80
2018-09-20T08:24:18.374Z,13.53
2018-09-20T08:26:47.247Z,12.93
2018-09-20T08:29:16.122Z,11.97
2018-09-20T08:31:45.092Z,16.83
2018-09-20T08:34:14.613Z,11.30
2018-09-20T08:36:43.549Z,12.43
2018-09-20T08:39:12.991Z,12.87
2018-09-20T08:41:42.025Z,9.93
2018-09-20T08:44:10.904Z,11.63
2018-09-20T08:46:39.991Z,8.13
2018-09-20T08:49:08.896Z,12.03
2018-09-20T08:51:37.795Z,8.20
2018-09-20T08:54:06.984Z,14.93
2018-09-20T08:56:37.246Z,13.97
2018-09-20T08:59:06.522Z,10.80
2018-09-20T09:01:35.494Z,10.07
2018-09-20T09:04:04.755Z,10.93
2018-09-20T09:06:33.654Z,13.00
2018-09-20T09:09:02.949Z,13.00
2018-09-20T09:11:33.460Z,5.30
2018-09-20T09:14:02.346Z,12.10
2018-09-20T09:16:31.757Z,15.23
2018-09-20T09:19:00.598Z,10.57
2018-09-20T09:21:29.485Z,8.03
2018-09-20T09:23:58.462Z,14.63
2018-09-20T09:26:27.363Z,7.93
2018-09-20T09:28:57.623Z,11.47
2018-09-20T09:31:26.444Z,11.43
2018-09-20T09:33:55.463Z,16.10
2018-09-20T09:36:24.382Z,10.40
2018-09-20T09:38:53.612Z,11.30
2018-09-20T09:41:22.525Z,9.60
2018-09-20T09:43:52.214Z,26.40
2018-09-20T09:46:21.057Z,18.03
2018-09-20T09:48:50.101Z,9.87
2018-09-20T09:51:19.422Z,13.03
2018-09-20T09:53:48.371Z,16.13
2018-09-20T09:56:23.980Z,8.40
2018-09-20T09:58:53.886Z,13.27
2018-09-20T10:01:22.835Z,13.30
2018-09-20T10:03:51.728Z,14.67
2018-09-20T10:06:20.664Z,10.47
2018-09-20T10:08:50.159Z,8.97
2018-09-20T10:11:19.075Z,13.20
2018-09-20T10:13:48.051Z,12.70
2018-09-20T10:16:17.215Z,12.27
2018-09-20T10:18:46.091Z,13.30
2018-09-20T10:21:15.083Z,10.03
2018-09-20T10:23:45.241Z,10.10
2018-09-20T10:26:14.118Z,9.07
2018-09-20T10:28:43.103Z,11.37
2018-09-20T10:31:11.993Z,13.40
2018-09-20T10:33:40.904Z,11.30
2018-09-20T10:36:10.958Z,10.33
2018-09-20T10:38:39.821Z,9.73
2018-09-20T10:41:09.135Z,7.60
2018-09-20T10:43:39.765Z,9.00
2018-09-20T10:46:08.686Z,11.63
2018-09-20T10:48:37.568Z,12.37
2018-09-20T10:51:06.461Z,9.37
2018-09-20T10:53:35.830Z,12.00
2018-09-20T10:56:06.416Z,6.17
2018-09-20T10:58:35.326Z,13.77
2018-09-20T11:01:04.201Z,11.47
2018-09-20T11:03:34.013Z,11.40
2018-09-20T11:06:02.866Z,11.40
2018-09-20T11:08:31.816Z,12.53
2018-09-20T11:11:01.921Z,10.77
2018-09-20T11:13:30.713Z,13.17
2018-09-20T11:15:59.772Z,10.43
2018-09-20T11:18:30.271Z,13.33
2018-09-20T11:20:59.145Z,14.77
2018-09-20T11:23:28.063Z,9.23
2018-09-20T11:25:57.027Z,8.43
2018-09-20T11:28:26.777Z,10.97
2018-09-20T11:30:57.292Z,9.33
2018-09-20T11:33:26.171Z,8.50
2018-09-20T11:35:55.022Z,9.23
2018-09-20T11:38:23.904Z,15.77
2018-09-20T11:40:52.789Z,12.97
2018-09-20T11:43:22.251Z,13.97
2018-09-20T11:45:51.123Z,11.23
2018-09-20T11:48:20.006Z,11.23
2018-09-20T11:50:48.868Z,13.40
2018-09-20T11:53:17.844Z,21.20
2018-09-20T11:55:48.038Z,19.30
2018-09-20T11:58:16.917Z,9.40
2018-09-20T12:00:45.813Z,9.87
2018-09-20T12:03:14.667Z,13.83
2018-09-20T12:05:43.602Z,10.30
2018-09-20T12:08:12.673Z,13.60
2018-09-20T12:10:44.102Z,9.37
2018-09-20T12:13:17.041Z,9.43
2018-09-20T12:15:50.896Z,8.77
2018-09-20T12:18:19.715Z,12.97
2018-09-20T12:20:48.579Z,5.47
2018-09-20T12:23:17.790Z,7.07
2018-09-20T12:25:47.063Z,8.23
2018-09-20T12:28:16.184Z,8.57
2018-09-20T12:30:45.063Z,7.70
2018-09-20T12:33:14.539Z,9.13
2018-09-20T12:35:43.966Z,7.43
2018-09-20T12:38:13.397Z,11.80
2018-09-20T12:40:42.192Z,6.30
2018-09-20T12:43:11.174Z,10.27
2018-09-20T12:45:40.099Z,9.27
2018-09-20T12:48:09.001Z,10.93
2018-09-20T12:50:38.331Z,8.87
2018-09-20T12:53:07.722Z,7.07
2018-09-20T12:55:38.166Z,9.77
2018-09-20T12:58:07.020Z,8.47
2018-09-20T13:00:38.237Z,9.63
2018-09-20T13:03:08.928Z,8.13
2018-09-20T13:05:38.816Z,6.10
2018-09-20T13:08:07.876Z,9.10
2018-09-20T13:10:36.983Z,6.57
2018-09-20T13:13:05.875Z,6.73
2018-09-20T13:15:34.775Z,12.07
2018-09-20T13:18:04.194Z,6.03
2018-09-20T13:20:33.101Z,5.83
2018-09-20T13:23:02.005Z,6.53
2018-09-20T13:25:31.265Z,7.77
2018-09-20T13:28:00.238Z,8.43
2018-09-20T13:30:29.328Z,6.30
2018-09-20T13:32:58.195Z,8.33
2018-09-20T13:35:27.310Z,9.47
2018-09-20T13:37:56.464Z,7.27
2018-09-20T13:40:25.480Z,16.20
2018-09-20T13:42:54.370Z,8.57
2018-09-20T13:45:23.263Z,5.53
2018-09-20T13:47:56.998Z,19.70
2018-09-20T13:50:27.032Z,9.87
2018-09-20T13:52:55.935Z,8.90
2018-09-20T13:55:26.190Z,14.13
2018-09-20T13:57:55.127Z,12.57
2018-09-20T14:00:23.976Z,7.20
2018-09-20T14:02:53.732Z,8.83
2018-09-20T14:05:22.827Z,6.83
2018-09-20T14:07:52.026Z,9.80
2018-09-20T14:10:21.291Z,14.40
2018-09-20T14:12:50.263Z,10.00
2018-09-20T14:15:19.186Z,11.30
2018-09-20T14:17:49.367Z,7.13
2018-09-20T14:20:18.658Z,6.77
2018-09-20T14:22:47.539Z,10.07
2018-09-20T14:25:16.419Z,5.53
2018-09-20T14:27:45.302Z,10.17
2018-09-20T14:30:14.214Z,6.67
2018-09-20T14:32:43.354Z,7.20
2018-09-20T14:35:13.523Z,9.40
2018-09-20T14:37:42.404Z,6.87
2018-09-20T14:40:12.033Z,6.13
2018-09-20T14:42:40.872Z,7.70
2018-09-20T14:45:11.318Z,9.53
2018-09-20T14:47:40.257Z,7.40
2018-09-20T14:50:09.149Z,6.33
2018-09-20T14:52:38.217Z,6.03
2018-09-20T14:55:07.034Z,9.40
2018-09-20T14:57:37.214Z,6.60
2018-09-20T15:00:06.201Z,5.97
2018-09-20T15:02:35.242Z,7.67
2018-09-20T15:05:04.334Z,5.57
2018-09-20T15:07:33.860Z,6.23
2018-09-20T15:10:37.814Z,12.00
2018-09-20T15:13:07.551Z,5.97
2018-09-20T15:15:36.521Z,7.47
2018-09-20T15:18:05.362Z,7.73
2018-09-20T15:20:34.365Z,8.20
2018-09-20T15:23:03.725Z,5.30
2018-09-20T15:25:32.547Z,4.17
2018-09-20T15:28:01.451Z,6.40
2018-09-20T15:30:30.297Z,4.57
2018-09-20T15:33:00.530Z,5.83
2018-09-20T15:35:30.930Z,5.10
2018-09-20T15:38:00.072Z,5.27
2018-09-20T15:40:28.940Z,6.30
2018-09-20T15:42:58.026Z,5.60
2018-09-20T15:45:27.319Z,4.27
2018-09-20T15:47:58.266Z,6.80
2018-09-20T15:50:27.338Z,7.10
2018-09-20T15:52:56.247Z,5.93
2018-09-20T15:55:26.264Z,5.70
2018-09-20T15:57:55.123Z,5.73
2018-09-20T16:00:24.031Z,5.57
2018-09-20T16:02:52.883Z,4.07
2018-09-20T16:05:21.757Z,6.17
2018-09-20T16:07:50.918Z,5.63
2018-09-20T16:10:20.636Z,5.57
2018-09-20T16:12:49.551Z,5.07
2018-09-20T16:15:18.643Z,4.83
2018-09-20T16:17:47.557Z,5.47
2018-09-20T16:20:16.407Z,5.83
2018-09-20T16:22:45.691Z,3.93
2018-09-20T16:25:14.904Z,5.03
2018-09-20T16:27:43.773Z,5.47
2018-09-20T16:30:21.692Z,5.37
2018-09-20T16:35:08.925Z,6.67
2018-09-20T16:37:46.936Z,4.07
2018-09-20T16:40:18.023Z,7.87
2018-09-20T16:42:50.463Z,5.57
2018-09-20T16:45:19.390Z,5.93
2018-09-20T16:47:48.267Z,5.57
2018-09-20T16:50:17.176Z,5.63
2018-09-20T16:52:46.530Z,3.93
2018-09-20T16:55:15.439Z,7.17
2018-09-20T16:57:46.353Z,4.17
2018-09-20T17:00:15.980Z,3.93
2018-09-20T17:02:44.852Z,6.23
2018-09-20T17:05:13.742Z,3.93
2018-09-20T17:07:42.622Z,5.57
2018-09-20T17:10:12.455Z,6.20
2018-09-20T17:12:41.312Z,5.57
2018-09-20T17:15:11.245Z,6.00
2018-09-20T17:17:39.986Z,4.43
2018-09-20T17:20:08.908Z,6.57
2018-09-20T17:22:38.947Z,6.77
2018-09-20T17:25:07.792Z,4.43
2018-09-20T17:27:36.647Z,5.90
2018-09-20T17:30:05.550Z,3.70
2018-09-20T17:32:34.427Z,4.43
2018-09-20T17:35:04.469Z,5.93
2018-09-20T17:37:35.072Z,6.43
2018-09-20T17:40:03.978Z,5.30
2018-09-20T17:42:33.677Z,6.57
2018-09-20T17:45:02.838Z,5.10
2018-09-20T17:47:32.191Z,7.60
2018-09-20T17:50:05.050Z,5.23
2018-09-20T17:52:34.315Z,4.03
2018-09-20T17:55:03.587Z,5.30
2018-09-20T17:57:34.714Z,4.77
2018-09-20T18:00:03.621Z,4.77
2018-09-20T18:02:32.596Z,6.17
2018-09-20T18:05:01.466Z,4.97
2018-09-20T18:07:30.356Z,6.23
2018-09-20T18:10:01.023Z,6.23
2018-09-20T18:12:29.870Z,4.93
2018-09-20T18:14:58.761Z,5.17
2018-09-20T18:17:28.583Z,6.80
2018-09-20T18:19:58.626Z,4.77
2018-09-20T18:22:27.848Z,5.57
2018-09-20T18:24:56.775Z,7.00
2018-09-20T18:27:25.687Z,5.57
2018-09-20T18:29:55.894Z,6.80
2018-09-20T18:32:24.900Z,3.97
2018-09-20T18:34:53.751Z,5.67
2018-09-20T18:37:22.655Z,4.93
2018-09-20T18:39:51.500Z,5.13
2018-09-20T18:42:21.274Z,5.80
2018-09-20T18:44:50.494Z,4.47
2018-09-20T18:47:19.327Z,6.30
2018-09-20T18:49:48.264Z,5.30
2018-09-20T18:52:17.042Z,5.27
2018-09-20T18:54:46.178Z,6.53
2018-09-20T18:57:16.859Z,5.37
2018-09-20T18:59:45.698Z,6.37
2018-09-20T19:02:14.559Z,4.40
2018-09-20T19:04:44.965Z,7.23
2018-09-20T19:07:13.848Z,5.07
2018-09-20T19:09:44.389Z,5.80
2018-09-20T19:12:13.227Z,5.43
2018-09-20T19:14:42.480Z,7.93
2018-09-20T19:17:11.313Z,6.40
2018-09-20T19:19:40.167Z,9.40
2018-09-20T19:22:09.085Z,5.00
2018-09-20T19:24:38.219Z,5.43
2018-09-20T19:27:07.100Z,5.30
2018-09-20T19:29:35.944Z,7.80
2018-09-20T19:32:04.846Z,6.60
2018-09-20T19:34:34.688Z,7.47
2018-09-20T19:37:03.779Z,7.83
2018-09-20T19:39:32.740Z,5.73
2018-09-20T19:42:01.595Z,8.10
2018-09-20T19:44:30.791Z,7.03
2018-09-20T19:46:59.682Z,5.73
2018-09-20T19:49:28.547Z,6.10
2018-09-20T19:51:57.434Z,6.87
2018-09-20T19:54:26.577Z,6.57
2018-09-20T19:56:56.435Z,4.87
2018-09-20T19:59:25.299Z,6.33
2018-09-20T20:01:54.184Z,5.87
2018-09-20T20:04:25.511Z,6.80
2018-09-20T20:06:54.650Z,5.67
2018-09-20T20:09:23.532Z,7.53
2018-09-20T20:11:54.024Z,6.60
2018-09-20T20:14:22.869Z,6.80
2018-09-20T20:16:51.725Z,7.30
2018-09-20T20:19:20.601Z,8.17
2018-09-20T20:21:49.446Z,5.73
2018-09-20T20:24:18.607Z,5.20
2018-09-20T20:26:48.267Z,5.77
2018-09-20T20:29:17.135Z,6.97
2018-09-20T20:31:45.984Z,5.77
2018-09-20T20:34:14.872Z,6.13
2018-09-20T20:36:44.145Z,5.07
2018-09-20T20:39:13.035Z,7.47
2018-09-20T20:41:41.987Z,5.30
2018-09-20T20:44:10.864Z,5.40
2018-09-20T20:46:39.712Z,10.50
2018-09-20T20:49:09.198Z,7.40
2018-09-20T20:51:38.045Z,5.03
2018-09-20T20:54:06.965Z,5.73
2018-09-20T20:56:37.951Z,6.67
2018-09-20T20:59:07.032Z,8.77
2018-09-20T21:01:36.311Z,10.60
2018-09-20T21:04:05.175Z,5.37
2018-09-20T21:06:34.387Z,8.47
2018-09-20T21:09:03.599Z,7.73
2018-09-20T21:11:33.737Z,6.13
2018-09-20T21:14:02.614Z,5.90
2018-09-20T21:16:31.471Z,6.47
2018-09-20T21:19:00.346Z,7.53
2018-09-20T21:21:29.199Z,6.67
2018-09-20T21:23:58.107Z,6.07
2018-09-20T21:26:26.971Z,6.23
2018-09-20T21:28:56.192Z,7.97
2018-09-20T21:31:25.058Z,5.27
2018-09-20T21:33:54.611Z,7.47
2018-09-20T21:36:24.731Z,5.23
2018-09-20T21:38:54.287Z,6.97
2018-09-20T21:41:23.160Z,7.97
2018-09-20T21:43:52.377Z,8.07
2018-09-20T21:46:21.239Z,6.57
2018-09-20T21:48:51.204Z,7.23
2018-09-20T21:51:21.112Z,6.87
2018-09-20T21:53:49.963Z,7.30
2018-09-20T21:56:20.128Z,8.77
2018-09-20T21:58:49.576Z,5.73
2018-09-20T22:01:18.404Z,7.83
2018-09-20T22:03:47.268Z,7.83
2018-09-20T22:06:16.110Z,5.90
2018-09-20T22:08:45.089Z,7.50
2018-09-20T22:11:15.515Z,7.47
2018-09-20T22:13:44.356Z,6.03
2018-09-20T22:16:13.255Z,9.27
2018-09-20T22:18:42.135Z,6.40
2018-09-20T22:21:11.011Z,6.20
2018-09-20T22:23:40.272Z,4.87
2018-09-20T22:26:09.134Z,6.30
2018-09-20T22:28:37.996Z,5.27
2018-09-20T22:31:07.172Z,6.47
2018-09-20T22:33:36.635Z,7.43
2018-09-20T22:36:05.771Z,6.27
2018-09-20T22:38:34.625Z,6.77
2018-09-20T22:41:03.478Z,6.23
2018-09-20T22:43:32.547Z,5.73
2018-09-20T22:46:01.708Z,5.53
2018-09-20T22:48:30.637Z,7.30
2018-09-20T22:51:00.636Z,5.67
2018-09-20T22:53:29.491Z,5.50
2018-09-20T22:55:59.615Z,9.00
2018-09-20T22:58:28.979Z,6.87
2018-09-20T23:00:57.845Z,6.90
2018-09-20T23:03:26.704Z,6.00
2018-09-20T23:05:55.543Z,5.90
2018-09-20T23:08:24.447Z,6.00
2018-09-20T23:10:55.240Z,7.17
2018-09-20T23:13:24.095Z,8.10
2018-09-20T23:15:52.951Z,7.13
2018-09-20T23:18:22.819Z,6.90
2018-09-20T23:20:51.675Z,5.43
2018-09-20T23:23:20.635Z,6.00
2018-09-20T23:25:49.513Z,7.07
2018-09-20T23:28:18.415Z,5.47
2018-09-20T23:30:47.710Z,5.30
2018-09-20T23:33:16.553Z,9.10
2018-09-20T23:35:45.489Z,6.90
2018-09-20T23:38:14.327Z,6.17
2018-09-20T23:40:44.135Z,8.53
2018-09-20T23:43:12.984Z,5.87
2018-09-20T23:45:41.851Z,7.73
2018-09-20T23:48:10.736Z,7.60
2018-09-20T23:50:39.807Z,6.80
2018-09-20T23:53:09.047Z,8.27
2018-09-20T23:55:39.372Z,6.20
2018-09-20T23:58:08.212Z,7.17
